createdAt,value
2022-10-17T00:01:19.274Z,101816.47
2022-10-17T00:03:48.220Z,101815.63
2022-10-17T00:06:16.929Z,101813.91
2022-10-17T00:08:46.168Z,101818.34
2022-10-17T00:11:18.570Z,101816.66
2022-10-17T00:13:49.822Z,101823.69
2022-10-17T00:16:25.228Z,101824.63
2022-10-17T00:18:53.946Z,101822.91
2022-10-17T00:21:23.771Z,101812.47
2022-10-17T00:23:53.597Z,101801.22
2022-10-17T00:26:23.942Z,101795.88
2022-10-17T00:28:53.705Z,101803.78
2022-10-17T00:31:23.625Z,101808.09
2022-10-17T00:33:52.556Z,101815.88
2022-10-17T00:36:22.780Z,101815.78
2022-10-17T00:38:53.511Z,101807.91
2022-10-17T00:41:27.037Z,101799.94
2022-10-17T00:44:00.107Z,101801.69
2022-10-17T00:46:30.265Z,101806.00
2022-10-17T00:49:01.947Z,101804.03
2022-10-17T00:51:34.988Z,101805.72
2022-10-17T00:54:04.961Z,101813.50
2022-10-17T00:56:35.592Z,101817.81
2022-10-17T01:01:37.939Z,101826.63
2022-10-17T01:04:06.777Z,101821.38
2022-10-17T01:06:35.718Z,101824.94
2022-10-17T01:09:04.455Z,101818.94
2022-10-17T01:11:45.799Z,101812.03
2022-10-17T01:14:25.224Z,101803.41
2022-10-17T01:17:04.961Z,101802.69
2022-10-17T01:19:50.924Z,101799.13
2022-10-17T01:22:26.284Z,101799.94
2022-10-17T01:25:20.142Z,101802.47
2022-10-17T01:28:05.779Z,101800.59
2022-10-17T01:30:57.553Z,101786.47
2022-10-17T01:33:35.880Z,101795.03
2022-10-17T01:36:12.293Z,101779.28
2022-10-17T01:38:47.143Z,101786.13
2022-10-17T01:41:25.632Z,101784.31
2022-10-17T01:44:00.524Z,101784.19
2022-10-17T01:46:34.976Z,101788.47
2022-10-17T01:49:05.778Z,101779.75
2022-10-17T01:51:39.201Z,101781.38
2022-10-17T01:54:13.969Z,101778.75
2022-10-17T01:56:44.637Z,101785.66
2022-10-17T01:59:17.764Z,101776.81
2022-10-17T02:01:53.519Z,101774.97
2022-10-17T02:04:22.832Z,101767.91
2022-10-17T02:06:51.322Z,101783.56
2022-10-17T02:09:23.099Z,101789.56
2022-10-17T02:12:17.083Z,101774.66
2022-10-17T02:14:59.547Z,101778.94
2022-10-17T02:17:40.753Z,101778.88
2022-10-17T02:20:18.464Z,101779.63
2022-10-17T02:22:53.272Z,101780.44
2022-10-17T02:25:30.785Z,101779.50
2022-10-17T02:28:06.277Z,101783.91
2022-10-17T02:30:41.034Z,101779.50
2022-10-17T02:33:16.491Z,101773.47
2022-10-17T02:35:59.263Z,101776.19
2022-10-17T02:38:30.340Z,101763.28
2022-10-17T02:40:59.916Z,101762.50
2022-10-17T02:43:29.443Z,101767.91
2022-10-17T02:45:58.736Z,101774.03
2022-10-17T02:48:36.858Z,101767.06
2022-10-17T02:51:13.201Z,101759.22
2022-10-17T02:53:52.232Z,101759.16
2022-10-17T02:56:22.204Z,101763.44
2022-10-17T02:58:56.240Z,101758.09
2022-10-17T03:01:25.808Z,101764.28
2022-10-17T03:04:07.968Z,101771.22
2022-10-17T03:06:36.716Z,101759.00
2022-10-17T03:09:05.474Z,101759.00
2022-10-17T03:11:33.999Z,101766.84
2022-10-17T03:14:02.503Z,101761.63
2022-10-17T03:16:31.000Z,101761.63
2022-10-17T03:18:59.584Z,101765.06
2022-10-17T03:21:29.492Z,101767.69
2022-10-17T03:23:58.085Z,101772.91
2022-10-17T03:26:26.641Z,101769.44
2022-10-17T03:28:55.137Z,101759.09
2022-10-17T03:31:23.882Z,101754.00
2022-10-17T03:33:52.484Z,101748.88
2022-10-17T03:36:21.112Z,101749.78
2022-10-17T03:38:55.133Z,101747.28
2022-10-17T03:41:23.611Z,101745.53
2022-10-17T03:43:53.863Z,101752.66
2022-10-17T03:46:22.390Z,101750.09
2022-10-17T03:48:51.307Z,101754.53
2022-10-17T03:51:19.812Z,101752.00
2022-10-17T03:53:48.415Z,101748.41
2022-10-17T03:56:20.208Z,101745.81
2022-10-17T03:58:48.928Z,101743.13
2022-10-17T04:01:18.806Z,101744.09
2022-10-17T04:03:50.784Z,101750.16
2022-10-17T04:06:19.785Z,101744.09
2022-10-17T04:08:48.716Z,101743.13
2022-10-17T04:11:20.560Z,101732.69
2022-10-17T04:13:53.285Z,101734.38
2022-10-17T04:16:21.971Z,101738.75
2022-10-17T04:18:54.539Z,101730.00
2022-10-17T04:21:24.690Z,101730.78
2022-10-17T04:23:56.526Z,101731.66
2022-10-17T04:26:27.289Z,101728.13
2022-10-17T04:28:55.869Z,101730.66
2022-10-17T04:31:24.480Z,101731.56
2022-10-17T04:33:52.993Z,101731.56
2022-10-17T04:36:23.003Z,101729.88
2022-10-17T04:38:51.489Z,101728.13
2022-10-17T04:41:20.535Z,101733.34
2022-10-17T04:43:51.424Z,101725.50
2022-10-17T04:46:20.174Z,101727.28
2022-10-17T04:48:48.688Z,101733.34
2022-10-17T04:51:21.844Z,101735.03
2022-10-17T04:53:53.036Z,101728.00
2022-10-17T04:56:24.060Z,101730.59
2022-10-17T04:58:54.040Z,101734.06
2022-10-17T05:01:24.135Z,101729.69
2022-10-17T05:03:53.347Z,101742.66
2022-10-17T05:06:24.292Z,101728.75
2022-10-17T05:08:52.822Z,101734.78
2022-10-17T05:11:23.681Z,101731.34
2022-10-17T05:13:54.831Z,101733.13
2022-10-17T05:16:23.661Z,101737.50
2022-10-17T05:18:53.457Z,101734.06
2022-10-17T05:21:24.097Z,101734.06
2022-10-17T05:23:53.227Z,101741.88
2022-10-17T05:26:22.220Z,101738.34
2022-10-17T05:28:52.439Z,101740.00
2022-10-17T05:31:22.536Z,101739.91
2022-10-17T05:33:51.064Z,101739.78
2022-10-17T05:36:19.610Z,101740.59
2022-10-17T05:38:50.705Z,101734.56
2022-10-17T05:41:20.221Z,101732.75
2022-10-17T05:43:49.180Z,101737.19
2022-10-17T05:46:17.834Z,101739.84
2022-10-17T05:48:47.695Z,101737.34
2022-10-17T05:51:16.220Z,101735.63
2022-10-17T05:53:44.756Z,101740.00
2022-10-17T05:56:14.493Z,101736.56
2022-10-17T05:58:50.148Z,101748.78
2022-10-17T06:01:20.309Z,101751.47
2022-10-17T06:03:50.307Z,101749.78
2022-10-17T06:06:19.608Z,101747.22
2022-10-17T06:08:48.116Z,101752.59
2022-10-17T06:11:16.739Z,101747.44
2022-10-17T06:13:45.228Z,101752.78
2022-10-17T06:16:13.740Z,101758.06
2022-10-17T06:18:42.351Z,101769.50
2022-10-17T06:21:13.428Z,101773.94
2022-10-17T06:23:41.991Z,101779.28
2022-10-17T06:26:10.950Z,101785.50
2022-10-17T06:28:39.552Z,101778.59
2022-10-17T06:31:09.185Z,101782.16
2022-10-17T06:33:38.554Z,101786.59
2022-10-17T06:36:08.814Z,101793.72
2022-10-17T06:38:38.708Z,101792.03
2022-10-17T06:41:08.837Z,101786.88
2022-10-17T06:43:37.688Z,101791.38
2022-10-17T06:46:07.077Z,101791.59
2022-10-17T06:48:35.680Z,101798.69
2022-10-17T06:51:05.784Z,101808.41
2022-10-17T06:53:36.337Z,101804.22
2022-10-17T06:56:08.167Z,101803.50
2022-10-17T06:58:39.311Z,101806.25
2022-10-17T07:01:09.989Z,101802.13
2022-10-17T07:03:39.241Z,101795.25
2022-10-17T07:06:08.283Z,101791.94
2022-10-17T07:08:36.823Z,101793.81
2022-10-17T07:11:13.402Z,101800.94
2022-10-17T07:13:41.903Z,101797.66
2022-10-17T07:16:11.083Z,101803.19
2022-10-17T07:18:39.919Z,101811.25
2022-10-17T07:21:08.951Z,101808.78
2022-10-17T07:23:38.622Z,101810.00
2022-10-17T07:26:09.358Z,101815.41
2022-10-17T07:28:43.301Z,101816.47
2022-10-17T07:31:13.993Z,101813.09
2022-10-17T07:33:43.407Z,101816.72
2022-10-17T07:36:13.039Z,101823.84
2022-10-17T07:38:42.275Z,101811.78
2022-10-17T07:41:16.485Z,101814.56
2022-10-17T07:43:49.467Z,101815.69
2022-10-17T07:46:18.294Z,101814.94
2022-10-17T07:48:46.896Z,101815.97
2022-10-17T07:51:15.567Z,101818.75
2022-10-17T07:53:47.935Z,101819.81
2022-10-17T07:56:18.023Z,101820.88
2022-10-17T07:58:48.330Z,101821.94
2022-10-17T08:01:19.163Z,101821.22
2022-10-17T08:03:49.207Z,101818.75
2022-10-17T08:06:18.315Z,101821.59
2022-10-17T08:08:46.917Z,101821.75
2022-10-17T08:11:17.106Z,101821.16
2022-10-17T08:13:45.695Z,101830.13
2022-10-17T08:16:14.748Z,101818.13
2022-10-17T08:18:45.120Z,101824.53
2022-10-17T08:21:14.658Z,101821.31
2022-10-17T08:23:43.542Z,101825.09
2022-10-17T08:26:13.591Z,101819.31
2022-10-17T08:28:42.470Z,101813.47
2022-10-17T08:31:13.239Z,101817.28
2022-10-17T08:33:42.588Z,101822.78
2022-10-17T08:36:15.042Z,101815.13
2022-10-17T08:38:44.526Z,101814.47
2022-10-17T08:41:23.579Z,101812.03
2022-10-17T08:44:04.048Z,101808.69
2022-10-17T08:46:37.644Z,101806.31
2022-10-17T08:49:14.226Z,101801.19
2022-10-17T08:51:50.128Z,101800.47
2022-10-17T08:54:23.404Z,101801.44
2022-10-17T08:56:54.524Z,101796.38
2022-10-17T08:59:28.960Z,101805.31
2022-10-17T09:02:05.149Z,101802.84
2022-10-17T09:04:47.365Z,101800.44
2022-10-17T09:07:23.631Z,101799.69
2022-10-17T09:10:01.924Z,101805.97
2022-10-17T09:12:38.962Z,101814.03
2022-10-17T09:15:32.064Z,101812.47
2022-10-17T09:18:08.889Z,101811.66
2022-10-17T09:20:41.892Z,101810.94
2022-10-17T09:23:17.464Z,101813.72
2022-10-17T09:25:48.793Z,101816.59
2022-10-17T09:28:20.708Z,101816.78
2022-10-17T09:30:55.307Z,101817.81
2022-10-17T09:33:42.290Z,101810.97
2022-10-17T09:36:20.421Z,101810.16
2022-10-17T09:38:53.568Z,101802.41
2022-10-17T09:41:45.551Z,101801.59
2022-10-17T09:44:20.248Z,101793.78
2022-10-17T09:47:07.872Z,101795.59
2022-10-17T09:49:38.308Z,101797.44
2022-10-17T09:52:15.468Z,101799.25
2022-10-17T09:54:50.151Z,101796.63
2022-10-17T09:57:20.833Z,101786.13
2022-10-17T10:00:01.079Z,101794.13
2022-10-17T10:02:33.475Z,101796.81
2022-10-17T10:05:06.412Z,101793.34
2022-10-17T10:07:38.467Z,101789.00
2022-10-17T10:10:27.777Z,101789.94
2022-10-17T10:13:05.996Z,101788.13
2022-10-17T10:15:38.775Z,101792.38
2022-10-17T10:21:08.386Z,101791.84
2022-10-17T10:23:40.126Z,101797.94
2022-10-17T10:26:26.433Z,101792.75
2022-10-17T10:28:59.010Z,101794.38
2022-10-17T10:31:34.047Z,101795.31
2022-10-17T10:34:13.741Z,101801.44
2022-10-17T10:36:47.736Z,101804.00
2022-10-17T10:39:26.241Z,101799.53
2022-10-17T10:41:56.633Z,101798.59
2022-10-17T10:44:27.574Z,101798.41
2022-10-17T10:47:18.718Z,101792.00
2022-10-17T10:49:48.012Z,101797.25
2022-10-17T10:52:25.237Z,101783.00
2022-10-17T10:55:04.897Z,101782.81
2022-10-17T10:57:38.107Z,101784.69
2022-10-17T11:00:15.544Z,101786.69
2022-10-17T11:02:53.077Z,101785.75
2022-10-17T11:05:31.689Z,101780.44
2022-10-17T11:08:08.715Z,101784.81
2022-10-17T11:10:54.888Z,101778.34
2022-10-17T11:13:29.196Z,101782.66
2022-10-17T11:16:05.866Z,101776.47
2022-10-17T11:18:41.107Z,101769.34
2022-10-17T11:21:16.440Z,101770.94
2022-10-17T11:23:49.179Z,101753.16
2022-10-17T11:26:26.008Z,101755.63
2022-10-17T11:28:57.629Z,101750.28
2022-10-17T11:31:31.064Z,101746.50
2022-10-17T11:34:03.047Z,101742.91
2022-10-17T11:36:35.978Z,101753.31
2022-10-17T11:39:09.786Z,101747.66
2022-10-17T11:41:45.233Z,101747.72
2022-10-17T11:44:26.480Z,101747.75
2022-10-17T11:46:59.814Z,101753.94
2022-10-17T11:49:36.839Z,101745.88
2022-10-17T11:52:54.989Z,101753.22
2022-10-17T11:55:22.972Z,101750.00
2022-10-17T11:58:07.218Z,101741.41
2022-10-17T12:00:51.622Z,101738.03
2022-10-17T12:03:36.001Z,101739.06
2022-10-17T12:06:14.569Z,101733.66
2022-10-17T12:08:50.714Z,101739.25
2022-10-17T12:11:35.825Z,101743.91
2022-10-17T12:14:06.141Z,101750.16
2022-10-17T12:16:45.289Z,101744.34
2022-10-17T12:19:28.613Z,101740.63
2022-10-17T12:21:59.864Z,101733.59
2022-10-17T12:24:38.245Z,101737.63
2022-10-17T12:27:32.750Z,101730.03
2022-10-17T12:30:02.874Z,101725.50
2022-10-17T12:33:00.464Z,101734.00
2022-10-17T12:35:25.983Z,101733.19
2022-10-17T12:38:20.428Z,101722.34
2022-10-17T12:40:51.483Z,101723.94
2022-10-17T12:43:47.835Z,101723.44
2022-10-17T12:46:55.237Z,101713.50
2022-10-17T12:49:44.014Z,101720.22
2022-10-17T12:52:24.781Z,101723.84
2022-10-17T12:55:11.505Z,101723.09
2022-10-17T12:57:54.741Z,101734.47
2022-10-17T13:00:29.659Z,101725.16
2022-10-17T13:03:05.657Z,101724.34
2022-10-17T13:05:38.412Z,101717.81
2022-10-17T13:08:09.393Z,101712.88
2022-10-17T13:10:43.222Z,101708.34
2022-10-17T13:13:18.184Z,101710.72
2022-10-17T13:15:50.895Z,101697.69
2022-10-17T13:18:22.488Z,101703.19
2022-10-17T13:21:00.992Z,101711.19
2022-10-17T13:23:32.680Z,101713.28
2022-10-17T13:26:06.860Z,101716.13
2022-10-17T13:28:39.188Z,101718.09
2022-10-17T13:31:08.848Z,101721.97
2022-10-17T13:33:40.029Z,101707.91
2022-10-17T13:36:19.043Z,101711.47
2022-10-17T13:38:48.292Z,101710.50
2022-10-17T13:41:35.505Z,101712.63
2022-10-17T13:44:11.497Z,101717.16
2022-10-17T13:46:41.230Z,101704.09
2022-10-17T13:49:32.400Z,101704.19
2022-10-17T13:52:05.070Z,101701.63
2022-10-17T13:54:37.455Z,101711.44
2022-10-17T13:57:07.974Z,101706.16
2022-10-17T13:59:41.227Z,101709.69
2022-10-17T14:02:15.761Z,101717.69
2022-10-17T14:05:15.221Z,101707.06
2022-10-17T14:08:05.612Z,101720.25
2022-10-17T14:10:32.202Z,101716.59
2022-10-17T14:13:02.208Z,101721.81
2022-10-17T14:15:36.083Z,101713.91
2022-10-17T14:18:08.000Z,101717.56
2022-10-17T14:23:39.549Z,101721.16
2022-10-17T14:26:15.391Z,101715.00
2022-10-17T14:28:46.255Z,101722.09
2022-10-17T14:31:25.030Z,101725.59
2022-10-17T14:33:55.300Z,101727.34
2022-10-17T14:36:34.004Z,101722.13
2022-10-17T14:39:08.550Z,101722.00
2022-10-17T14:41:46.666Z,101734.38
2022-10-17T14:44:24.886Z,101730.13
2022-10-17T14:46:57.859Z,101737.25
2022-10-17T14:49:34.668Z,101732.94
2022-10-17T14:52:17.715Z,101729.59
2022-10-17T14:54:50.028Z,101721.69
2022-10-17T14:57:24.061Z,101727.97
2022-10-17T14:59:54.671Z,101735.19
2022-10-17T15:02:23.945Z,101741.47
2022-10-17T15:04:52.653Z,101742.41
2022-10-17T15:07:22.287Z,101738.00
2022-10-17T15:09:54.194Z,101733.66
2022-10-17T15:12:25.876Z,101739.94
2022-10-17T15:14:55.134Z,101731.19
2022-10-17T15:17:27.863Z,101739.22
2022-10-17T15:19:56.765Z,101749.03
2022-10-17T15:22:25.532Z,101741.06
2022-10-17T15:24:55.423Z,101737.59
2022-10-17T15:27:26.449Z,101738.56
2022-10-17T15:29:55.057Z,101739.50
2022-10-17T15:32:23.663Z,101744.84
2022-10-17T15:34:52.234Z,101745.78
2022-10-17T15:37:22.831Z,101738.78
2022-10-17T15:39:54.565Z,101746.78
2022-10-17T15:42:29.506Z,101745.03
2022-10-17T15:44:58.831Z,101749.53
2022-10-17T15:47:33.646Z,101760.16
2022-10-17T15:50:03.214Z,101754.06
2022-10-17T15:52:31.796Z,101753.19
2022-10-17T15:55:04.117Z,101752.34
2022-10-17T15:57:39.186Z,101759.41
2022-10-17T16:00:16.617Z,101752.38
2022-10-17T16:02:46.226Z,101755.03
2022-10-17T16:05:17.352Z,101752.38
2022-10-17T16:07:46.933Z,101742.66
2022-10-17T16:10:16.693Z,101747.09
2022-10-17T16:12:49.822Z,101755.06
2022-10-17T16:15:22.629Z,101752.47
2022-10-17T16:17:51.873Z,101750.72
2022-10-17T16:20:21.540Z,101755.16
2022-10-17T16:22:51.012Z,101756.09
2022-10-17T16:25:22.100Z,101757.91
2022-10-17T16:27:55.209Z,101756.16
2022-10-17T16:30:25.677Z,101751.75
2022-10-17T16:32:55.170Z,101757.97
2022-10-17T16:35:26.290Z,101755.34
2022-10-17T16:37:55.185Z,101761.53
2022-10-17T16:40:23.888Z,101758.03
2022-10-17T16:42:53.874Z,101757.19
2022-10-17T16:45:24.327Z,101763.34
2022-10-17T16:47:53.215Z,101761.63
2022-10-17T16:50:21.999Z,101754.56
2022-10-17T16:52:50.677Z,101760.75
2022-10-17T16:55:20.145Z,101758.09
2022-10-17T16:57:49.767Z,101761.66
2022-10-17T17:00:20.027Z,101766.06
2022-10-17T17:02:49.892Z,101762.56
2022-10-17T17:05:18.909Z,101769.59
2022-10-17T17:07:48.359Z,101765.22
2022-10-17T17:10:16.956Z,101770.50
2022-10-17T17:12:45.484Z,101775.81
2022-10-17T17:15:14.182Z,101764.34
2022-10-17T17:17:51.282Z,101771.41
2022-10-17T17:20:22.087Z,101771.44
2022-10-17T17:22:52.460Z,101770.53
2022-10-17T17:25:21.136Z,101771.41
2022-10-17T17:27:49.890Z,101769.66
2022-10-17T17:30:18.901Z,101768.75
2022-10-17T17:32:49.015Z,101777.56
2022-10-17T17:35:17.683Z,101778.47
2022-10-17T17:37:46.279Z,101777.56
2022-10-17T17:40:15.253Z,101784.63
2022-10-17T17:42:44.092Z,101788.13
2022-10-17T17:45:13.282Z,101785.44
2022-10-17T17:47:42.190Z,101782.75
2022-10-17T17:50:12.318Z,101791.50
2022-10-17T17:52:42.284Z,101778.25
2022-10-17T17:55:11.285Z,101790.53
2022-10-17T17:57:40.081Z,101780.81
2022-10-17T18:00:10.111Z,101794.88
2022-10-17T18:02:43.667Z,101794.84
2022-10-17T18:05:18.007Z,101807.16
2022-10-17T18:07:46.752Z,101802.78
2022-10-17T18:10:15.748Z,101805.41
2022-10-17T18:12:44.402Z,101808.94
2022-10-17T18:15:13.997Z,101812.44
2022-10-17T18:17:49.540Z,101803.63
2022-10-17T18:20:20.090Z,101807.13
2022-10-17T18:22:49.118Z,101809.69
2022-10-17T18:25:18.001Z,101810.53
2022-10-17T18:27:55.337Z,101807.00
2022-10-17T18:30:28.953Z,101821.88
2022-10-17T18:33:01.067Z,101824.44
2022-10-17T18:35:31.841Z,101825.25
2022-10-17T18:38:01.741Z,101824.34
2022-10-17T18:40:30.456Z,101826.06
2022-10-17T18:42:59.095Z,101824.22
2022-10-17T18:45:27.955Z,101825.03
2022-10-17T18:47:56.529Z,101828.50
2022-10-17T18:50:26.041Z,101836.34
2022-10-17T18:52:55.986Z,101825.78
2022-10-17T18:55:25.107Z,101833.63
2022-10-17T18:57:53.780Z,101839.69
2022-10-17T19:00:22.505Z,101837.00
2022-10-17T19:02:51.172Z,101840.38
2022-10-17T19:05:19.714Z,101841.16
2022-10-17T19:07:48.196Z,101842.91
2022-10-17T19:10:18.289Z,101848.19
2022-10-17T19:12:46.776Z,101850.06
2022-10-17T19:15:15.418Z,101851.84
2022-10-17T19:17:43.905Z,101845.75
2022-10-17T19:20:12.551Z,101858.03
2022-10-17T19:22:41.092Z,101854.56
2022-10-17T19:25:10.517Z,101856.34
2022-10-17T19:27:40.567Z,101864.25
2022-10-17T19:30:10.760Z,101867.78
2022-10-17T19:32:39.244Z,101865.16
2022-10-17T19:35:08.296Z,101865.13
2022-10-17T19:37:36.812Z,101866.03
2022-10-17T19:40:06.087Z,101855.50
2022-10-17T19:42:35.125Z,101863.44
2022-10-17T19:45:05.740Z,101871.41
2022-10-17T19:47:34.842Z,101869.72
2022-10-17T19:52:36.816Z,101875.03
2022-10-17T19:55:05.878Z,101875.03
2022-10-17T19:57:36.415Z,101878.56
2022-10-17T20:00:07.971Z,101874.19
2022-10-17T20:02:36.662Z,101877.69
2022-10-17T20:05:21.621Z,101877.66
2022-10-17T20:07:52.120Z,101882.06
2022-10-17T20:10:21.320Z,101879.38
2022-10-17T20:12:50.013Z,101884.66
2022-10-17T20:15:19.971Z,101888.16
2022-10-17T20:17:48.467Z,101894.31
2022-10-17T20:20:17.314Z,101899.53
2022-10-17T20:22:45.904Z,101895.09
2022-10-17T20:25:14.443Z,101895.97
2022-10-17T20:27:42.982Z,101901.16
2022-10-17T20:30:12.040Z,101895.84
2022-10-17T20:32:42.012Z,101901.03
2022-10-17T20:35:10.922Z,101907.88
2022-10-17T20:37:42.693Z,101901.56
2022-10-17T20:43:00.614Z,101916.16
2022-10-17T20:45:43.664Z,101909.84
2022-10-17T20:48:19.003Z,101913.16
2022-10-17T20:50:47.738Z,101919.13
2022-10-17T20:53:36.073Z,101917.16
2022-10-17T20:56:07.962Z,101918.63
2022-10-17T20:58:36.736Z,101919.28
2022-10-17T21:01:09.555Z,101934.03
2022-10-17T21:03:44.043Z,101928.59
2022-10-17T21:06:15.668Z,101923.19
2022-10-17T21:08:44.547Z,101917.81
2022-10-17T21:11:14.751Z,101924.69
2022-10-17T21:13:43.951Z,101925.50
2022-10-17T21:16:14.485Z,101921.94
2022-10-17T21:18:44.763Z,101933.28
2022-10-17T21:21:15.541Z,101936.69
2022-10-17T21:23:45.911Z,101940.09
2022-10-17T21:26:15.216Z,101940.88
2022-10-17T21:28:45.244Z,101943.47
2022-10-17T21:31:16.656Z,101942.50
2022-10-17T21:33:48.672Z,101941.53
2022-10-17T21:36:18.245Z,101939.72
2022-10-17T21:38:47.989Z,101943.97
2022-10-17T21:41:19.578Z,101942.97
2022-10-17T21:43:48.728Z,101939.31
2022-10-17T21:46:18.265Z,101943.53
2022-10-17T21:48:49.115Z,101954.00
2022-10-17T21:51:19.320Z,101946.84
2022-10-17T21:53:48.269Z,101949.38
2022-10-17T21:56:18.575Z,101958.88
2022-10-17T21:58:47.988Z,101957.88
2022-10-17T22:01:19.353Z,101961.28
2022-10-17T22:03:51.747Z,101964.69
2022-10-17T22:09:13.412Z,101979.50
2022-10-17T22:11:42.553Z,101975.13
2022-10-17T22:14:14.206Z,101979.47
2022-10-17T22:16:45.067Z,101973.31
2022-10-17T22:19:17.078Z,101970.69
2022-10-17T22:21:45.687Z,101986.41
2022-10-17T22:24:16.494Z,101978.50
2022-10-17T22:26:45.733Z,101981.13
2022-10-17T22:29:14.420Z,101989.84
2022-10-17T22:31:42.999Z,101981.09
2022-10-17T22:34:15.175Z,101983.75
2022-10-17T22:36:44.080Z,101984.59
2022-10-17T22:39:12.776Z,101982.00
2022-10-17T22:41:41.344Z,101991.56
2022-10-17T22:44:10.004Z,101977.56
2022-10-17T22:46:38.672Z,101985.41
2022-10-17T22:49:07.205Z,101985.41
2022-10-17T22:51:37.117Z,101987.16
2022-10-17T22:54:05.837Z,101985.38
2022-10-17T22:56:34.563Z,101977.47
2022-10-17T22:59:03.052Z,101985.28
2022-10-17T23:01:31.554Z,101985.28
2022-10-17T23:04:00.430Z,101988.75
2022-10-17T23:06:28.923Z,101988.75
2022-10-17T23:08:58.965Z,101979.13
2022-10-17T23:11:27.577Z,101985.28
2022-10-17T23:13:56.105Z,101978.28
2022-10-17T23:16:24.655Z,101982.66
2022-10-17T23:18:53.149Z,101991.44
2022-10-17T23:21:21.652Z,101982.66
2022-10-17T23:23:50.214Z,101983.50
2022-10-17T23:26:20.164Z,101974.72
2022-10-17T23:28:48.745Z,101983.56
2022-10-17T23:31:19.256Z,101997.56
2022-10-17T23:33:49.738Z,101995.88
2022-10-17T23:36:20.867Z,101987.91
2022-10-17T23:38:51.800Z,101992.38
2022-10-17T23:41:24.019Z,101957.00
2022-10-17T23:43:52.537Z,101990.63
2022-10-17T23:46:21.078Z,101978.34
2022-10-17T23:48:49.631Z,101987.16
2022-10-17T23:51:18.481Z,101984.56
2022-10-17T23:53:47.136Z,101972.41
2022-10-17T23:56:15.660Z,101988.34
2022-10-17T23:58:45.737Z,101987.53
